sensor_id;sensor_type;location;lat;lon;timestamp;P1;durP1;ratioP1;P2;durP2;ratioP2
7571;SDS011;3827;49.928;8.548;2023-05-21T00:01:00;10.05;;;8.55;;
7571;SDS011;3827;49.928;8.548;2023-05-21T00:03:29;10.13;;;8.77;;
7571;SDS011;3827;49.928;8.548;2023-05-21T00:05:56;9.98;;;8.38;;
7571;SDS011;3827;49.928;8.548;2023-05-21T00:08:25;9.68;;;8.68;;
7571;SDS011;3827;49.928;8.548;2023-05-21T00:10:52;10.85;;;9.13;;
7571;SDS011;3827;49.928;8.548;2023-05-21T00:13:19;10.20;;;8.77;;
7571;SDS011;3827;49.928;8.548;2023-05-21T00:15:47;10.07;;;8.57;;
7571;SDS011;3827;49.928;8.548;2023-05-21T00:18:14;9.07;;;8.13;;
7571;SDS011;3827;49.928;8.548;2023-05-21T00:20:41;9.25;;;8.35;;
7571;SDS011;3827;49.928;8.548;2023-05-21T00:23:08;9.35;;;8.43;;
7571;SDS011;3827;49.928;8.548;2023-05-21T00:25:35;8.88;;;7.97;;
7571;SDS011;3827;49.928;8.548;2023-05-21T00:28:01;9.27;;;7.88;;
7571;SDS011;3827;49.928;8.548;2023-05-21T00:30:28;8.60;;;7.80;;
7571;SDS011;3827;49.928;8.548;2023-05-21T00:32:57;9.15;;;8.18;;
7571;SDS011;3827;49.928;8.548;2023-05-21T00:35:26;8.85;;;7.95;;
7571;SDS011;3827;49.928;8.548;2023-05-21T00:37:53;8.60;;;7.67;;
7571;SDS011;3827;49.928;8.548;2023-05-21T00:40:20;9.70;;;8.20;;
7571;SDS011;3827;49.928;8.548;2023-05-21T00:42:47;11.32;;;9.10;;
7571;SDS011;3827;49.928;8.548;2023-05-21T00:45:14;9.52;;;8.50;;
7571;SDS011;3827;49.928;8.548;2023-05-21T00:47:40;9.15;;;8.25;;
7571;SDS011;3827;49.928;8.548;2023-05-21T00:50:10;9.83;;;8.83;;
7571;SDS011;3827;49.928;8.548;2023-05-21T00:52:38;10.73;;;8.40;;
7571;SDS011;3827;49.928;8.548;2023-05-21T00:55:07;9.85;;;8.73;;
7571;SDS011;3827;49.928;8.548;2023-05-21T00:57:34;9.77;;;8.38;;
7571;SDS011;3827;49.928;8.548;2023-05-21T01:00:02;9.93;;;8.88;;
7571;SDS011;3827;49.928;8.548;2023-05-21T01:02:33;8.90;;;8.00;;
7571;SDS011;3827;49.928;8.548;2023-05-21T01:05:01;9.63;;;8.30;;
7571;SDS011;3827;49.928;8.548;2023-05-21T01:07:31;8.88;;;7.97;;
7571;SDS011;3827;49.928;8.548;2023-05-21T01:10:00;9.45;;;8.07;;
7571;SDS011;3827;49.928;8.548;2023-05-21T01:12:28;9.20;;;7.90;;
7571;SDS011;3827;49.928;8.548;2023-05-21T01:14:57;8.93;;;7.97;;
7571;SDS011;3827;49.928;8.548;2023-05-21T01:17:25;9.25;;;8.05;;
7571;SDS011;3827;49.928;8.548;2023-05-21T01:19:53;9.38;;;8.43;;
7571;SDS011;3827;49.928;8.548;2023-05-21T01:22:22;9.45;;;8.43;;
7571;SDS011;3827;49.928;8.548;2023-05-21T01:24:52;9.90;;;8.20;;
7571;SDS011;3827;49.928;8.548;2023-05-21T01:27:20;8.90;;;7.95;;
7571;SDS011;3827;49.928;8.548;2023-05-21T01:29:47;9.50;;;8.52;;
7571;SDS011;3827;49.928;8.548;2023-05-21T01:32:15;9.35;;;8.35;;
7571;SDS011;3827;49.928;8.548;2023-05-21T01:34:49;9.10;;;8.20;;
7571;SDS011;3827;49.928;8.548;2023-05-21T01:37:25;9.18;;;8.23;;
7571;SDS011;3827;49.928;8.548;2023-05-21T01:39:59;9.52;;;8.20;;
7571;SDS011;3827;49.928;8.548;2023-05-21T01:42:30;9.13;;;8.13;;
7571;SDS011;3827;49.928;8.548;2023-05-21T01:44:59;9.68;;;8.63;;
7571;SDS011;3827;49.928;8.548;2023-05-21T01:47:30;8.93;;;8.00;;
7571;SDS011;3827;49.928;8.548;2023-05-21T01:49:58;9.18;;;8.20;;
7571;SDS011;3827;49.928;8.548;2023-05-21T01:52:25;9.50;;;8.50;;
7571;SDS011;3827;49.928;8.548;2023-05-21T01:54:52;9.50;;;8.07;;
7571;SDS011;3827;49.928;8.548;2023-05-21T01:57:20;9.70;;;8.70;;
7571;SDS011;3827;49.928;8.548;2023-05-21T01:59:47;9.40;;;8.40;;
7571;SDS011;3827;49.928;8.548;2023-05-21T02:02:14;8.85;;;7.93;;
7571;SDS011;3827;49.928;8.548;2023-05-21T02:04:41;8.93;;;8.02;;
7571;SDS011;3827;49.928;8.548;2023-05-21T02:07:08;9.48;;;8.48;;
7571;SDS011;3827;49.928;8.548;2023-05-21T02:09:35;10.10;;;8.82;;
7571;SDS011;3827;49.928;8.548;2023-05-21T02:12:02;9.55;;;8.45;;
7571;SDS011;3827;49.928;8.548;2023-05-21T02:14:30;8.85;;;7.95;;
7571;SDS011;3827;49.928;8.548;2023-05-21T02:16:58;9.63;;;8.35;;
7571;SDS011;3827;49.928;8.548;2023-05-21T02:19:26;9.53;;;8.53;;
7571;SDS011;3827;49.928;8.548;2023-05-21T02:21:52;9.93;;;8.85;;
7571;SDS011;3827;49.928;8.548;2023-05-21T02:24:19;10.45;;;8.27;;
7571;SDS011;3827;49.928;8.548;2023-05-21T02:26:48;9.55;;;8.50;;
7571;SDS011;3827;49.928;8.548;2023-05-21T02:29:16;10.07;;;8.70;;
7571;SDS011;3827;49.928;8.548;2023-05-21T02:31:44;9.77;;;8.65;;
7571;SDS011;3827;49.928;8.548;2023-05-21T02:34:11;9.82;;;8.45;;
7571;SDS011;3827;49.928;8.548;2023-05-21T02:36:37;9.73;;;8.70;;
7571;SDS011;3827;49.928;8.548;2023-05-21T02:39:05;9.18;;;8.15;;
7571;SDS011;3827;49.928;8.548;2023-05-21T02:41:32;10.63;;;8.65;;
7571;SDS011;3827;49.928;8.548;2023-05-21T02:43:59;9.68;;;8.55;;
7571;SDS011;3827;49.928;8.548;2023-05-21T02:46:25;9.70;;;8.20;;
7571;SDS011;3827;49.928;8.548;2023-05-21T02:48:54;9.75;;;7.82;;
7571;SDS011;3827;49.928;8.548;2023-05-21T02:51:20;9.25;;;8.25;;
7571;SDS011;3827;49.928;8.548;2023-05-21T02:53:47;9.98;;;8.55;;
7571;SDS011;3827;49.928;8.548;2023-05-21T02:56:14;8.53;;;7.50;;
7571;SDS011;3827;49.928;8.548;2023-05-21T02:58:41;9.77;;;8.15;;
7571;SDS011;3827;49.928;8.548;2023-05-21T03:01:08;9.85;;;8.23;;
7571;SDS011;3827;49.928;8.548;2023-05-21T03:03:35;9.32;;;8.23;;
7571;SDS011;3827;49.928;8.548;2023-05-21T03:06:03;10.15;;;8.02;;
7571;SDS011;3827;49.928;8.548;2023-05-21T03:08:30;9.00;;;8.00;;
7571;SDS011;3827;49.928;8.548;2023-05-21T03:10:56;9.20;;;7.97;;
7571;SDS011;3827;49.928;8.548;2023-05-21T03:13:23;9.73;;;8.35;;
7571;SDS011;3827;49.928;8.548;2023-05-21T03:15:50;9.30;;;8.30;;
7571;SDS011;3827;49.928;8.548;2023-05-21T03:18:20;8.32;;;7.43;;
7571;SDS011;3827;49.928;8.548;2023-05-21T03:20:47;10.47;;;8.73;;
7571;SDS011;3827;49.928;8.548;2023-05-21T03:23:15;9.25;;;8.32;;
7571;SDS011;3827;49.928;8.548;2023-05-21T03:25:42;8.88;;;7.95;;
7571;SDS011;3827;49.928;8.548;2023-05-21T03:28:09;9.57;;;8.07;;
7571;SDS011;3827;49.928;8.548;2023-05-21T03:30:36;10.15;;;8.15;;
7571;SDS011;3827;49.928;8.548;2023-05-21T03:33:03;8.95;;;8.13;;
7571;SDS011;3827;49.928;8.548;2023-05-21T03:35:30;9.00;;;8.10;;
7571;SDS011;3827;49.928;8.548;2023-05-21T03:37:57;8.70;;;7.68;;
7571;SDS011;3827;49.928;8.548;2023-05-21T03:40:25;10.15;;;8.20;;
7571;SDS011;3827;49.928;8.548;2023-05-21T03:42:52;9.17;;;8.23;;
7571;SDS011;3827;49.928;8.548;2023-05-21T03:45:19;9.43;;;8.23;;
7571;SDS011;3827;49.928;8.548;2023-05-21T03:47:46;10.30;;;8.55;;
7571;SDS011;3827;49.928;8.548;2023-05-21T03:50:13;9.10;;;8.00;;
7571;SDS011;3827;49.928;8.548;2023-05-21T03:52:40;10.45;;;9.10;;
7571;SDS011;3827;49.928;8.548;2023-05-21T03:55:08;9.52;;;8.52;;
7571;SDS011;3827;49.928;8.548;2023-05-21T03:57:36;9.13;;;8.23;;
7571;SDS011;3827;49.928;8.548;2023-05-21T04:00:03;8.90;;;8.00;;
7571;SDS011;3827;49.928;8.548;2023-05-21T04:02:32;10.13;;;8.50;;
7571;SDS011;3827;49.928;8.548;2023-05-21T04:04:59;9.82;;;8.77;;
7571;SDS011;3827;49.928;8.548;2023-05-21T04:07:27;9.45;;;8.50;;
7571;SDS011;3827;49.928;8.548;2023-05-21T04:09:54;9.68;;;8.55;;
7571;SDS011;3827;49.928;8.548;2023-05-21T04:12:20;9.23;;;8.18;;
7571;SDS011;3827;49.928;8.548;2023-05-21T04:14:49;10.20;;;8.80;;
7571;SDS011;3827;49.928;8.548;2023-05-21T04:17:15;10.80;;;8.75;;
7571;SDS011;3827;49.928;8.548;2023-05-21T04:19:44;9.32;;;8.27;;
7571;SDS011;3827;49.928;8.548;2023-05-21T04:22:11;10.13;;;8.68;;
7571;SDS011;3827;49.928;8.548;2023-05-21T04:24:38;10.23;;;9.13;;
7571;SDS011;3827;49.928;8.548;2023-05-21T04:27:05;11.60;;;9.23;;
7571;SDS011;3827;49.928;8.548;2023-05-21T04:29:33;10.50;;;8.95;;
7571;SDS011;3827;49.928;8.548;2023-05-21T04:32:03;11.45;;;8.75;;
7571;SDS011;3827;49.928;8.548;2023-05-21T04:34:30;10.55;;;8.95;;
7571;SDS011;3827;49.928;8.548;2023-05-21T04:36:57;12.73;;;9.20;;
7571;SDS011;3827;49.928;8.548;2023-05-21T04:39:24;10.57;;;9.13;;
7571;SDS011;3827;49.928;8.548;2023-05-21T04:41:52;10.35;;;8.80;;
7571;SDS011;3827;49.928;8.548;2023-05-21T04:44:20;9.82;;;8.45;;
7571;SDS011;3827;49.928;8.548;2023-05-21T04:46:47;8.93;;;8.02;;
7571;SDS011;3827;49.928;8.548;2023-05-21T04:49:16;9.70;;;8.70;;
7571;SDS011;3827;49.928;8.548;2023-05-21T04:51:42;9.82;;;8.20;;
7571;SDS011;3827;49.928;8.548;2023-05-21T04:54:10;8.88;;;7.97;;
7571;SDS011;3827;49.928;8.548;2023-05-21T04:56:37;8.60;;;7.70;;
7571;SDS011;3827;49.928;8.548;2023-05-21T04:59:04;9.60;;;8.50;;
7571;SDS011;3827;49.928;8.548;2023-05-21T05:01:31;8.95;;;7.88;;
7571;SDS011;3827;49.928;8.548;2023-05-21T05:03:59;9.57;;;7.78;;
7571;SDS011;3827;49.928;8.548;2023-05-21T05:06:27;9.43;;;7.93;;
7571;SDS011;3827;49.928;8.548;2023-05-21T05:08:54;8.90;;;8.02;;
7571;SDS011;3827;49.928;8.548;2023-05-21T05:11:20;8.88;;;7.97;;
7571;SDS011;3827;49.928;8.548;2023-05-21T05:13:47;9.80;;;8.80;;
7571;SDS011;3827;49.928;8.548;2023-05-21T05:16:14;9.27;;;8.38;;
7571;SDS011;3827;49.928;8.548;2023-05-21T05:18:42;8.00;;;7.20;;
7571;SDS011;3827;49.928;8.548;2023-05-21T05:21:09;8.63;;;7.73;;
7571;SDS011;3827;49.928;8.548;2023-05-21T05:23:37;10.23;;;8.47;;
7571;SDS011;3827;49.928;8.548;2023-05-21T05:26:04;8.50;;;7.60;;
7571;SDS011;3827;49.928;8.548;2023-05-21T05:28:31;9.57;;;7.85;;
7571;SDS011;3827;49.928;8.548;2023-05-21T05:30:57;9.65;;;7.95;;
7571;SDS011;3827;49.928;8.548;2023-05-21T05:33:24;9.57;;;8.55;;
7571;SDS011;3827;49.928;8.548;2023-05-21T05:35:51;9.80;;;8.57;;
7571;SDS011;3827;49.928;8.548;2023-05-21T05:38:18;9.15;;;8.20;;
7571;SDS011;3827;49.928;8.548;2023-05-21T05:40:46;9.23;;;8.23;;
7571;SDS011;3827;49.928;8.548;2023-05-21T05:43:13;9.75;;;8.20;;
7571;SDS011;3827;49.928;8.548;2023-05-21T05:45:39;10.15;;;8.05;;
7571;SDS011;3827;49.928;8.548;2023-05-21T05:48:06;9.23;;;8.10;;
7571;SDS011;3827;49.928;8.548;2023-05-21T05:50:33;8.73;;;7.93;;
7571;SDS011;3827;49.928;8.548;2023-05-21T05:53:00;9.20;;;8.27;;
7571;SDS011;3827;49.928;8.548;2023-05-21T05:55:27;9.07;;;8.07;;
7571;SDS011;3827;49.928;8.548;2023-05-21T05:57:55;9.57;;;8.05;;
7571;SDS011;3827;49.928;8.548;2023-05-21T06:00:22;8.55;;;7.57;;
7571;SDS011;3827;49.928;8.548;2023-05-21T06:02:50;8.80;;;7.90;;
7571;SDS011;3827;49.928;8.548;2023-05-21T06:05:17;8.95;;;7.85;;
7571;SDS011;3827;49.928;8.548;2023-05-21T06:07:44;9.80;;;7.90;;
7571;SDS011;3827;49.928;8.548;2023-05-21T06:10:10;10.45;;;7.97;;
7571;SDS011;3827;49.928;8.548;2023-05-21T06:12:37;8.75;;;7.70;;
7571;SDS011;3827;49.928;8.548;2023-05-21T06:15:06;8.32;;;7.45;;
7571;SDS011;3827;49.928;8.548;2023-05-21T06:17:34;9.20;;;7.90;;
7571;SDS011;3827;49.928;8.548;2023-05-21T06:20:00;8.95;;;8.07;;
7571;SDS011;3827;49.928;8.548;2023-05-21T06:22:28;8.10;;;7.30;;
7571;SDS011;3827;49.928;8.548;2023-05-21T06:24:54;8.63;;;7.65;;
7571;SDS011;3827;49.928;8.548;2023-05-21T06:27:21;10.30;;;8.32;;
7571;SDS011;3827;49.928;8.548;2023-05-21T06:29:48;9.70;;;7.60;;
7571;SDS011;3827;49.928;8.548;2023-05-21T06:32:16;9.30;;;7.80;;
7571;SDS011;3827;49.928;8.548;2023-05-21T06:34:45;8.82;;;7.88;;
7571;SDS011;3827;49.928;8.548;2023-05-21T06:37:12;8.90;;;8.00;;
7571;SDS011;3827;49.928;8.548;2023-05-21T06:39:39;9.38;;;8.20;;
7571;SDS011;3827;49.928;8.548;2023-05-21T06:42:06;8.85;;;7.78;;
7571;SDS011;3827;49.928;8.548;2023-05-21T06:44:33;8.52;;;7.47;;
7571;SDS011;3827;49.928;8.548;2023-05-21T06:46:59;8.10;;;7.30;;
7571;SDS011;3827;49.928;8.548;2023-05-21T06:49:28;8.23;;;7.32;;
7571;SDS011;3827;49.928;8.548;2023-05-21T06:51:54;8.25;;;7.40;;
7571;SDS011;3827;49.928;8.548;2023-05-21T06:54:21;8.40;;;7.55;;
7571;SDS011;3827;49.928;8.548;2023-05-21T06:56:48;7.90;;;7.10;;
7571;SDS011;3827;49.928;8.548;2023-05-21T06:59:15;8.32;;;7.38;;
7571;SDS011;3827;49.928;8.548;2023-05-21T07:01:42;8.23;;;7.38;;
7571;SDS011;3827;49.928;8.548;2023-05-21T07:04:09;9.00;;;8.10;;
7571;SDS011;3827;49.928;8.548;2023-05-21T07:06:37;8.82;;;7.65;;
7571;SDS011;3827;49.928;8.548;2023-05-21T07:09:04;8.27;;;7.47;;
7571;SDS011;3827;49.928;8.548;2023-05-21T07:11:31;7.68;;;6.90;;
7571;SDS011;3827;49.928;8.548;2023-05-21T07:13:58;8.20;;;7.40;;
7571;SDS011;3827;49.928;8.548;2023-05-21T07:16:26;9.17;;;7.87;;
7571;SDS011;3827;49.928;8.548;2023-05-21T07:18:53;8.57;;;7.53;;
7571;SDS011;3827;49.928;8.548;2023-05-21T07:21:20;8.33;;;7.47;;
7571;SDS011;3827;49.928;8.548;2023-05-21T07:23:48;8.17;;;7.37;;
7571;SDS011;3827;49.928;8.548;2023-05-21T07:26:15;8.32;;;7.43;;
7571;SDS011;3827;49.928;8.548;2023-05-21T07:28:41;8.20;;;7.40;;
7571;SDS011;3827;49.928;8.548;2023-05-21T07:31:09;8.45;;;7.55;;
7571;SDS011;3827;49.928;8.548;2023-05-21T07:33:37;8.60;;;7.78;;
7571;SDS011;3827;49.928;8.548;2023-05-21T07:36:04;8.55;;;7.50;;
7571;SDS011;3827;49.928;8.548;2023-05-21T07:38:31;8.05;;;7.32;;
7571;SDS011;3827;49.928;8.548;2023-05-21T07:40:59;8.30;;;7.50;;
7571;SDS011;3827;49.928;8.548;2023-05-21T07:43:26;8.52;;;7.70;;
7571;SDS011;3827;49.928;8.548;2023-05-21T07:45:53;7.95;;;7.25;;
7571;SDS011;3827;49.928;8.548;2023-05-21T07:48:20;8.35;;;7.43;;
7571;SDS011;3827;49.928;8.548;2023-05-21T07:50:47;8.35;;;7.55;;
7571;SDS011;3827;49.928;8.548;2023-05-21T07:53:16;8.77;;;7.88;;
7571;SDS011;3827;49.928;8.548;2023-05-21T07:55:43;8.57;;;7.68;;
7571;SDS011;3827;49.928;8.548;2023-05-21T07:58:14;8.48;;;7.57;;
7571;SDS011;3827;49.928;8.548;2023-05-21T08:00:41;7.70;;;6.93;;
7571;SDS011;3827;49.928;8.548;2023-05-21T08:03:10;8.02;;;7.18;;
7571;SDS011;3827;49.928;8.548;2023-05-21T08:05:40;7.97;;;7.10;;
7571;SDS011;3827;49.928;8.548;2023-05-21T08:08:08;8.10;;;7.30;;
7571;SDS011;3827;49.928;8.548;2023-05-21T08:10:35;7.67;;;6.97;;
7571;SDS011;3827;49.928;8.548;2023-05-21T08:13:02;8.38;;;7.15;;
7571;SDS011;3827;49.928;8.548;2023-05-21T08:15:31;8.20;;;7.40;;
7571;SDS011;3827;49.928;8.548;2023-05-21T08:17:57;6.95;;;6.25;;
7571;SDS011;3827;49.928;8.548;2023-05-21T08:20:24;7.50;;;6.68;;
7571;SDS011;3827;49.928;8.548;2023-05-21T08:22:51;7.68;;;6.97;;
7571;SDS011;3827;49.928;8.548;2023-05-21T08:25:18;7.90;;;7.10;;
7571;SDS011;3827;49.928;8.548;2023-05-21T08:27:45;8.40;;;7.25;;
7571;SDS011;3827;49.928;8.548;2023-05-21T08:30:12;7.05;;;6.45;;
7571;SDS011;3827;49.928;8.548;2023-05-21T08:32:41;8.65;;;7.75;;
7571;SDS011;3827;49.928;8.548;2023-05-21T08:35:08;7.95;;;6.95;;
7571;SDS011;3827;49.928;8.548;2023-05-21T08:37:35;8.43;;;7.63;;
7571;SDS011;3827;49.928;8.548;2023-05-21T08:40:02;7.68;;;6.90;;
7571;SDS011;3827;49.928;8.548;2023-05-21T08:42:32;8.55;;;7.18;;
7571;SDS011;3827;49.928;8.548;2023-05-21T08:45:04;8.35;;;7.53;;
7571;SDS011;3827;49.928;8.548;2023-05-21T08:47:33;8.23;;;6.82;;
7571;SDS011;3827;49.928;8.548;2023-05-21T08:50:02;8.30;;;7.27;;
7571;SDS011;3827;49.928;8.548;2023-05-21T08:52:30;7.53;;;6.65;;
7571;SDS011;3827;49.928;8.548;2023-05-21T08:54:57;7.50;;;6.80;;
7571;SDS011;3827;49.928;8.548;2023-05-21T08:57:24;8.00;;;6.70;;
7571;SDS011;3827;49.928;8.548;2023-05-21T08:59:53;8.60;;;6.73;;
7571;SDS011;3827;49.928;8.548;2023-05-21T09:02:19;7.60;;;6.60;;
7571;SDS011;3827;49.928;8.548;2023-05-21T09:04:49;8.68;;;6.82;;
7571;SDS011;3827;49.928;8.548;2023-05-21T09:07:23;8.07;;;6.75;;
7571;SDS011;3827;49.928;8.548;2023-05-21T09:09:52;7.18;;;6.47;;
7571;SDS011;3827;49.928;8.548;2023-05-21T09:12:21;9.87;;;7.10;;
7571;SDS011;3827;49.928;8.548;2023-05-21T09:14:49;8.40;;;6.60;;
7571;SDS011;3827;49.928;8.548;2023-05-21T09:17:16;7.40;;;6.70;;
7571;SDS011;3827;49.928;8.548;2023-05-21T09:22:37;6.97;;;6.28;;
7571;SDS011;3827;49.928;8.548;2023-05-21T09:25:07;6.63;;;6.03;;
7571;SDS011;3827;49.928;8.548;2023-05-21T09:27:35;7.57;;;6.65;;
7571;SDS011;3827;49.928;8.548;2023-05-21T09:30:03;7.72;;;6.28;;
7571;SDS011;3827;49.928;8.548;2023-05-21T09:32:31;7.40;;;6.70;;
7571;SDS011;3827;49.928;8.548;2023-05-21T09:35:03;6.83;;;6.13;;
7571;SDS011;3827;49.928;8.548;2023-05-21T09:37:36;7.45;;;6.65;;
7571;SDS011;3827;49.928;8.548;2023-05-21T09:40:08;6.97;;;6.10;;
7571;SDS011;3827;49.928;8.548;2023-05-21T09:42:36;7.72;;;6.13;;
7571;SDS011;3827;49.928;8.548;2023-05-21T09:45:04;6.50;;;5.80;;
7571;SDS011;3827;49.928;8.548;2023-05-21T09:47:32;6.72;;;6.13;;
7571;SDS011;3827;49.928;8.548;2023-05-21T09:49:59;7.73;;;6.23;;
7571;SDS011;3827;49.928;8.548;2023-05-21T09:52:26;7.15;;;6.20;;
7571;SDS011;3827;49.928;8.548;2023-05-21T09:54:55;7.18;;;6.47;;
7571;SDS011;3827;49.928;8.548;2023-05-21T09:57:23;6.35;;;5.70;;
7571;SDS011;3827;49.928;8.548;2023-05-21T09:59:50;6.22;;;5.57;;
7571;SDS011;3827;49.928;8.548;2023-05-21T10:02:19;6.28;;;5.72;;
7571;SDS011;3827;49.928;8.548;2023-05-21T10:04:47;6.78;;;5.57;;
7571;SDS011;3827;49.928;8.548;2023-05-21T10:07:15;6.38;;;5.78;;
7571;SDS011;3827;49.928;8.548;2023-05-21T10:09:44;6.57;;;5.97;;
7571;SDS011;3827;49.928;8.548;2023-05-21T10:12:14;6.30;;;5.70;;
7571;SDS011;3827;49.928;8.548;2023-05-21T10:14:44;6.85;;;5.47;;
7571;SDS011;3827;49.928;8.548;2023-05-21T10:17:14;6.03;;;5.43;;
7571;SDS011;3827;49.928;8.548;2023-05-21T10:19:42;6.05;;;5.20;;
7571;SDS011;3827;49.928;8.548;2023-05-21T10:22:09;6.43;;;5.63;;
7571;SDS011;3827;49.928;8.548;2023-05-21T10:24:38;6.00;;;5.40;;
7571;SDS011;3827;49.928;8.548;2023-05-21T10:27:06;6.13;;;5.53;;
7571;SDS011;3827;49.928;8.548;2023-05-21T10:29:34;6.03;;;5.50;;
7571;SDS011;3827;49.928;8.548;2023-05-21T10:32:03;6.65;;;5.47;;
7571;SDS011;3827;49.928;8.548;2023-05-21T10:34:31;5.78;;;5.28;;
7571;SDS011;3827;49.928;8.548;2023-05-21T10:37:00;5.93;;;5.00;;
7571;SDS011;3827;49.928;8.548;2023-05-21T10:39:27;6.22;;;5.53;;
7571;SDS011;3827;49.928;8.548;2023-05-21T10:41:57;6.68;;;5.40;;
7571;SDS011;3827;49.928;8.548;2023-05-21T10:44:38;6.00;;;5.03;;
7571;SDS011;3827;49.928;8.548;2023-05-21T10:47:30;5.40;;;4.85;;
7571;SDS011;3827;49.928;8.548;2023-05-21T10:50:25;5.07;;;4.60;;
7571;SDS011;3827;49.928;8.548;2023-05-21T10:53:12;5.70;;;5.10;;
7571;SDS011;3827;49.928;8.548;2023-05-21T10:55:49;5.07;;;4.57;;
7571;SDS011;3827;49.928;8.548;2023-05-21T11:01:32;6.22;;;4.50;;
7571;SDS011;3827;49.928;8.548;2023-05-21T11:04:02;5.57;;;5.03;;
7571;SDS011;3827;49.928;8.548;2023-05-21T11:06:30;5.07;;;4.57;;
7571;SDS011;3827;49.928;8.548;2023-05-21T11:08:59;5.28;;;4.82;;
7571;SDS011;3827;49.928;8.548;2023-05-21T11:11:40;4.90;;;4.40;;
7571;SDS011;3827;49.928;8.548;2023-05-21T11:14:24;5.32;;;4.47;;
7571;SDS011;3827;49.928;8.548;2023-05-21T11:16:53;4.93;;;4.43;;
7571;SDS011;3827;49.928;8.548;2023-05-21T11:19:20;5.10;;;4.60;;
7571;SDS011;3827;49.928;8.548;2023-05-21T11:21:57;5.47;;;5.00;;
7571;SDS011;3827;49.928;8.548;2023-05-21T11:24:24;5.18;;;4.78;;
7571;SDS011;3827;49.928;8.548;2023-05-21T11:26:58;5.18;;;4.68;;
7571;SDS011;3827;49.928;8.548;2023-05-21T11:29:43;5.00;;;4.60;;
7571;SDS011;3827;49.928;8.548;2023-05-21T11:32:13;4.82;;;4.43;;
7571;SDS011;3827;49.928;8.548;2023-05-21T11:34:44;5.43;;;4.93;;
7571;SDS011;3827;49.928;8.548;2023-05-21T11:37:21;5.47;;;4.97;;
7571;SDS011;3827;49.928;8.548;2023-05-21T11:39:51;6.05;;;5.10;;
7571;SDS011;3827;49.928;8.548;2023-05-21T11:42:28;5.30;;;4.80;;
7571;SDS011;3827;49.928;8.548;2023-05-21T11:44:56;4.72;;;4.32;;
7571;SDS011;3827;49.928;8.548;2023-05-21T11:47:25;4.90;;;4.50;;
7571;SDS011;3827;49.928;8.548;2023-05-21T11:49:53;5.13;;;4.63;;
7571;SDS011;3827;49.928;8.548;2023-05-21T11:52:20;5.45;;;4.95;;
7571;SDS011;3827;49.928;8.548;2023-05-21T11:54:49;5.30;;;4.80;;
7571;SDS011;3827;49.928;8.548;2023-05-21T11:57:19;5.55;;;5.05;;
7571;SDS011;3827;49.928;8.548;2023-05-21T11:59:46;5.30;;;4.80;;
7571;SDS011;3827;49.928;8.548;2023-05-21T12:02:15;4.80;;;4.40;;
7571;SDS011;3827;49.928;8.548;2023-05-21T12:04:44;5.55;;;5.05;;
7571;SDS011;3827;49.928;8.548;2023-05-21T12:07:13;5.50;;;5.00;;
7571;SDS011;3827;49.928;8.548;2023-05-21T12:09:42;5.30;;;4.70;;
7571;SDS011;3827;49.928;8.548;2023-05-21T12:12:10;4.72;;;4.32;;
7571;SDS011;3827;49.928;8.548;2023-05-21T12:14:39;5.40;;;4.63;;
7571;SDS011;3827;49.928;8.548;2023-05-21T12:17:09;5.30;;;4.80;;
7571;SDS011;3827;49.928;8.548;2023-05-21T12:19:37;5.05;;;4.55;;
7571;SDS011;3827;49.928;8.548;2023-05-21T12:22:06;5.63;;;4.88;;
7571;SDS011;3827;49.928;8.548;2023-05-21T12:24:34;5.43;;;4.80;;
7571;SDS011;3827;49.928;8.548;2023-05-21T12:27:02;5.22;;;4.68;;
7571;SDS011;3827;49.928;8.548;2023-05-21T12:29:34;4.97;;;4.57;;
7571;SDS011;3827;49.928;8.548;2023-05-21T12:32:02;5.33;;;4.83;;
7571;SDS011;3827;49.928;8.548;2023-05-21T12:34:36;4.90;;;4.40;;
7571;SDS011;3827;49.928;8.548;2023-05-21T12:37:03;4.80;;;4.30;;
7571;SDS011;3827;49.928;8.548;2023-05-21T12:39:32;4.35;;;4.03;;
7571;SDS011;3827;49.928;8.548;2023-05-21T12:42:02;4.22;;;3.92;;
7571;SDS011;3827;49.928;8.548;2023-05-21T12:44:30;4.57;;;4.17;;
7571;SDS011;3827;49.928;8.548;2023-05-21T12:46:57;4.82;;;4.32;;
7571;SDS011;3827;49.928;8.548;2023-05-21T12:49:33;4.80;;;4.40;;
7571;SDS011;3827;49.928;8.548;2023-05-21T12:52:02;4.93;;;4.53;;
7571;SDS011;3827;49.928;8.548;2023-05-21T12:54:32;7.63;;;4.38;;
7571;SDS011;3827;49.928;8.548;2023-05-21T12:57:09;4.70;;;4.30;;
7571;SDS011;3827;49.928;8.548;2023-05-21T12:59:46;4.50;;;4.10;;
7571;SDS011;3827;49.928;8.548;2023-05-21T13:02:15;4.45;;;4.05;;
7571;SDS011;3827;49.928;8.548;2023-05-21T13:04:46;4.68;;;4.15;;
7571;SDS011;3827;49.928;8.548;2023-05-21T13:07:14;4.35;;;4.05;;
7571;SDS011;3827;49.928;8.548;2023-05-21T13:09:42;4.55;;;4.10;;
7571;SDS011;3827;49.928;8.548;2023-05-21T13:12:10;4.90;;;4.40;;
7571;SDS011;3827;49.928;8.548;2023-05-21T13:14:38;4.30;;;3.90;;
7571;SDS011;3827;49.928;8.548;2023-05-21T13:17:05;4.65;;;4.25;;
7571;SDS011;3827;49.928;8.548;2023-05-21T13:19:32;5.13;;;4.72;;
7571;SDS011;3827;49.928;8.548;2023-05-21T13:21:59;5.00;;;4.60;;
7571;SDS011;3827;49.928;8.548;2023-05-21T13:24:25;5.18;;;4.68;;
7571;SDS011;3827;49.928;8.548;2023-05-21T13:26:53;4.95;;;4.45;;
7571;SDS011;3827;49.928;8.548;2023-05-21T13:29:20;4.90;;;3.90;;
7571;SDS011;3827;49.928;8.548;2023-05-21T13:31:47;5.80;;;3.97;;
7571;SDS011;3827;49.928;8.548;2023-05-21T13:34:14;5.60;;;5.10;;
7571;SDS011;3827;49.928;8.548;2023-05-21T13:36:41;4.63;;;4.23;;
7571;SDS011;3827;49.928;8.548;2023-05-21T13:39:08;4.70;;;4.22;;
7571;SDS011;3827;49.928;8.548;2023-05-21T13:41:35;5.10;;;4.50;;
7571;SDS011;3827;49.928;8.548;2023-05-21T13:44:03;5.95;;;4.38;;
7571;SDS011;3827;49.928;8.548;2023-05-21T13:46:30;4.97;;;4.47;;
7571;SDS011;3827;49.928;8.548;2023-05-21T13:48:57;4.77;;;4.37;;
7571;SDS011;3827;49.928;8.548;2023-05-21T13:51:25;4.30;;;4.00;;
7571;SDS011;3827;49.928;8.548;2023-05-21T13:53:52;5.07;;;4.50;;
7571;SDS011;3827;49.928;8.548;2023-05-21T13:56:18;5.00;;;4.60;;
7571;SDS011;3827;49.928;8.548;2023-05-21T13:58:47;4.57;;;4.17;;
7571;SDS011;3827;49.928;8.548;2023-05-21T14:01:15;4.97;;;4.50;;
7571;SDS011;3827;49.928;8.548;2023-05-21T14:03:41;5.47;;;4.82;;
7571;SDS011;3827;49.928;8.548;2023-05-21T14:06:08;4.72;;;4.32;;
7571;SDS011;3827;49.928;8.548;2023-05-21T14:08:35;4.97;;;4.47;;
7571;SDS011;3827;49.928;8.548;2023-05-21T14:11:02;4.50;;;4.10;;
7571;SDS011;3827;49.928;8.548;2023-05-21T14:13:29;4.85;;;4.45;;
7571;SDS011;3827;49.928;8.548;2023-05-21T14:15:56;4.78;;;4.30;;
7571;SDS011;3827;49.928;8.548;2023-05-21T14:18:24;5.32;;;4.82;;
7571;SDS011;3827;49.928;8.548;2023-05-21T14:20:52;4.72;;;4.32;;
7571;SDS011;3827;49.928;8.548;2023-05-21T14:23:19;4.65;;;4.25;;
7571;SDS011;3827;49.928;8.548;2023-05-21T14:25:45;4.87;;;4.37;;
7571;SDS011;3827;49.928;8.548;2023-05-21T14:28:12;5.57;;;5.07;;
7571;SDS011;3827;49.928;8.548;2023-05-21T14:30:39;5.32;;;4.80;;
7571;SDS011;3827;49.928;8.548;2023-05-21T14:33:06;4.93;;;4.45;;
7571;SDS011;3827;49.928;8.548;2023-05-21T14:35:34;4.38;;;3.97;;
7571;SDS011;3827;49.928;8.548;2023-05-21T14:38:01;4.78;;;4.38;;
7571;SDS011;3827;49.928;8.548;2023-05-21T14:40:28;4.68;;;4.28;;
7571;SDS011;3827;49.928;8.548;2023-05-21T14:42:54;4.90;;;4.47;;
7571;SDS011;3827;49.928;8.548;2023-05-21T14:45:21;4.88;;;4.47;;
7571;SDS011;3827;49.928;8.548;2023-05-21T14:47:48;5.85;;;4.30;;
7571;SDS011;3827;49.928;8.548;2023-05-21T14:50:15;4.53;;;4.10;;
7571;SDS011;3827;49.928;8.548;2023-05-21T14:52:44;5.22;;;4.20;;
7571;SDS011;3827;49.928;8.548;2023-05-21T14:55:11;4.90;;;4.40;;
7571;SDS011;3827;49.928;8.548;2023-05-21T14:57:40;4.70;;;4.30;;
7571;SDS011;3827;49.928;8.548;2023-05-21T15:00:07;4.13;;;3.78;;
7571;SDS011;3827;49.928;8.548;2023-05-21T15:02:35;4.50;;;4.10;;
7571;SDS011;3827;49.928;8.548;2023-05-21T15:05:02;4.88;;;4.28;;
7571;SDS011;3827;49.928;8.548;2023-05-21T15:07:30;4.45;;;4.05;;
7571;SDS011;3827;49.928;8.548;2023-05-21T15:09:58;4.43;;;4.03;;
7571;SDS011;3827;49.928;8.548;2023-05-21T15:12:25;4.80;;;4.40;;
7571;SDS011;3827;49.928;8.548;2023-05-21T15:14:51;5.17;;;4.67;;
7571;SDS011;3827;49.928;8.548;2023-05-21T15:17:18;4.57;;;4.18;;
7571;SDS011;3827;49.928;8.548;2023-05-21T15:19:45;4.78;;;4.35;;
7571;SDS011;3827;49.928;8.548;2023-05-21T15:22:12;4.80;;;4.40;;
7571;SDS011;3827;49.928;8.548;2023-05-21T15:24:39;4.40;;;4.00;;
7571;SDS011;3827;49.928;8.548;2023-05-21T15:27:07;5.03;;;4.53;;